• Join FlightAware (Why Join?)
  • Login
  • US Flag 
09:06AM EDT


 

Airport Tracker/Info


-or-


 

Live Flight TrackerFlight Track Log ✈ EGF2839 ✈ 03-May-2013 ✈ KDFW - KGRR

Flight Track Log - Related Links

Times and Time Zones

All times are in EDT time to prevent confusion due to time zone crossing. See the EGF2839 flight status page for this flight to view local times or setup timezone preferences in your user account.

Time Position Orientation Groundspeed Altitude Reporting Facility
EDT Latitude Longitude Course Direction KTS MPH feet Rate Location/Type
04:16PM 32.9167 -97.0500 357° North 146 168 1,400  Level Dallas / Fort Worth TRACON
04:17PM 32.9667 -97.0500 360° North 193 222 3,500 1,800 Climbing Dallas / Fort Worth TRACON
04:18PM 33.0333 -97.0500 360° North 215 247 5,200 1,980 Climbing Dallas / Fort Worth TRACON
04:19PM 32.8313 -96.8037 10° North  Level FlightAware Approximate
04:20PM 32.9471 -96.8000 North  Level FlightAware Approximate
04:20PM 33.1500 -96.9992 20° North 382 440 9,900  Level Fort Worth Center
04:21PM 33.0631 -96.8000 North  Level FlightAware Approximate
04:21PM 33.2250 -96.9664 20° North 272 313 11,600  Level Fort Worth Center
04:22PM 33.1790 -96.8070 357° North  Level FlightAware Approximate
04:22PM 33.2811 -96.9239 32° Northeast 260 299 12,100  Level Fort Worth Center
04:23PM 33.3686 -96.8711 27° Northeast 301 346 13,600 1,380 Climbing Fort Worth Center
04:24PM 33.4478 -96.8283 24° Northeast 306 352 15,000 1,380 Climbing Fort Worth Center
04:25PM 33.5164 -96.7806 30° Northeast 306 352 16,400 1,440 Climbing Fort Worth Center
04:26PM 33.6039 -96.7275 27° Northeast 306 352 17,900 1,200 Climbing Fort Worth Center
04:27PM 33.6725 -96.6822 29° Northeast 306 352 18,900 1,200 Climbing Fort Worth Center
04:28PM 33.7597 -96.6264 28° Northeast 311 358 20,400 1,380 Climbing Fort Worth Center
04:29PM 33.8408 -96.5758 27° Northeast 311 358 21,700 1,200 Climbing Fort Worth Center
04:30PM 33.9197 -96.5225 29° Northeast 311 358 22,900 1,200 Climbing Fort Worth Center
04:31PM 34.0028 -96.4664 29° Northeast 321 369 24,100 1,140 Climbing Fort Worth Center
04:32PM 34.0839 -96.4131 29° Northeast 326 375 25,300 1,140 Climbing Fort Worth Center
04:33PM 34.1667 -96.3467 34° Northeast 337 388 26,400 1,020 Climbing Fort Worth Center
04:34PM 34.2475 -96.2778 35° Northeast 347 399 27,400 900 Climbing Fort Worth Center
04:35PM 34.3283 -96.2114 34° Northeast 347 399 28,300 780 Climbing Fort Worth Center
04:36PM 34.4111 -96.1447 34° Northeast 352 405 29,000 300 Climbing Fort Worth Center
04:37PM 34.5000 -96.0706 35° Northeast 358 412 29,000  Level Fort Worth Center
04:38PM 34.5931 -95.9933 34° Northeast 375 432 29,000  Level Fort Worth Center
04:39PM 34.6903 -95.9158 33° Northeast 397 457 29,000  Level Fort Worth Center
04:40PM 34.7894 -95.8333 34° Northeast 415 478 29,000  Level Fort Worth Center
04:41PM 34.8883 -95.7428 37° Northeast 428 493 29,000  Level Fort Worth Center
04:43PM 35.0733 -95.5253 44° Northeast 438 504 29,000  Level Memphis Center
04:44PM 35.1633 -95.4217 43° Northeast 432 497 29,000  Level Memphis Center
04:45PM 35.2553 -95.3128 44° Northeast 437 503 29,000  Level Memphis Center
04:46PM 35.3428 -95.2086 44° Northeast 442 509 29,000  Level Memphis Center
04:47PM 35.4344 -95.0992 44° Northeast 448 516 29,000  Level Memphis Center
04:48PM 35.5242 -94.9894 45° Northeast 448 516 29,000  Level Memphis Center
04:49PM 35.6156 -94.8847 43° Northeast 448 516 29,000  Level Memphis Center
04:50PM 35.7050 -94.7747 45° Northeast 448 516 29,000  Level Memphis Center
04:51PM 35.7964 -94.6644 44° Northeast 448 516 29,000  Level Memphis Center
04:52PM 35.8878 -94.5564 44° Northeast 448 516 29,000  Level Memphis Center
04:53PM 35.9789 -94.4481 44° Northeast 448 516 29,000  Level Memphis Center
04:54PM 36.0700 -94.3397 44° Northeast 448 516 29,000  Level Memphis Center
04:56PM 36.2231 -94.1489 45° Northeast 450 518 29,000  Level Kansas City Center
04:57PM 36.3200 -94.0353 43° Northeast 453 521 29,000  Level Kansas City Center
04:58PM 36.4067 -93.9356 43° Northeast 451 519 29,000  Level Kansas City Center
04:59PM 36.4989 -93.8300 43° Northeast 452 520 29,000  Level Kansas City Center
05:00PM 36.5961 -93.7175 43° Northeast 450 518 29,000  Level Kansas City Center
05:01PM 36.6869 -93.6108 43° Northeast 449 517 29,000  Level Kansas City Center
05:02PM 36.7786 -93.5036 43° Northeast 450 518 29,000  Level Kansas City Center
05:03PM 36.8853 -93.3789 43° Northeast 449 517 29,000  Level Kansas City Center
05:04PM 36.9767 -93.2703 43° Northeast 450 518 29,000  Level Kansas City Center
05:06PM 37.0669 -93.1633 43° Northeast 447 514 29,000  Level Kansas City Center
05:07PM 37.1567 -93.0572 43° Northeast 444 511 29,000  Level Kansas City Center
05:08PM 37.2456 -92.9506 44° Northeast 442 509 29,000  Level Kansas City Center
05:09PM 37.3347 -92.8433 44° Northeast 442 509 29,000  Level Kansas City Center
05:10PM 37.4397 -92.7147 44° Northeast 439 505 29,000  Level Kansas City Center
05:11PM 37.5286 -92.6075 44° Northeast 440 506 29,000  Level Kansas City Center
05:12PM 37.6167 -92.5022 43° Northeast 439 505 29,000  Level Kansas City Center
05:13PM 37.7033 -92.3956 44° Northeast 441 507 29,000  Level Kansas City Center
05:14PM 37.7922 -92.2881 44° Northeast 443 510 29,000  Level Kansas City Center
05:15PM 37.8814 -92.1825 43° Northeast 441 507 29,000  Level Kansas City Center
05:16PM 37.9817 -92.0553 45° Northeast 436 502 29,000  Level Kansas City Center
05:17PM 38.0700 -91.9469 44° Northeast 440 506 29,000  Level Kansas City Center
05:18PM 38.1592 -91.8386 44° Northeast 442 509 29,000  Level Kansas City Center
05:20PM 38.2835 -91.6756 46° Northeast  Level FlightAware Approximate
05:20PM 38.3361 -91.6189 46° Northeast 442 509 29,000  Level Kansas City Center
05:21PM 38.4411 -91.4861 45° Northeast 441 507 29,000  Level Kansas City Center
05:22PM 38.5303 -91.3753 44° Northeast 442 509 29,000  Level Kansas City Center
05:23PM 38.6192 -91.2606 45° Northeast 447 514 29,000  Level Kansas City Center
05:24PM 38.7075 -91.1497 44° Northeast 447 514 29,000  Level Kansas City Center
05:25PM 38.7964 -91.0372 45° Northeast 447 514 29,000  Level Kansas City Center
05:26PM 38.8858 -90.9222 45° Northeast 449 517 29,000  Level Kansas City Center
05:27PM 38.9753 -90.8083 45° Northeast 450 518 29,000 360 Level Kansas City Center
05:28PM 39.0642 -90.6947 45° Northeast 449 517 29,800 960 Climbing Kansas City Center
05:29PM 39.1653 -90.5639 45° Northeast 433 498 31,000 540 Climbing Kansas City Center
05:30PM 39.2519 -90.4522 45° Northeast 435 501 31,000  Level Kansas City Center
05:31PM 39.3397 -90.3367 45° Northeast 446 513 31,000  Level Kansas City Center
05:32PM 39.4269 -90.2242 45° Northeast 445 512 31,000  Level Kansas City Center
05:33PM 39.5117 -90.1100 46° Northeast 442 509 31,000  Level Kansas City Center
05:34PM 39.5983 -89.9961 45° Northeast 443 510 31,000  Level Kansas City Center
05:36PM 39.6861 -89.8814 45° Northeast 446 513 31,000  Level Kansas City Center
05:37PM 39.7769 -89.7619 45° Northeast 446 513 31,000  Level Kansas City Center
05:38PM 39.8811 -89.6211 46° Northeast 449 517 31,000  Level Kansas City Center
05:38PM 39.9167 -89.5808 41° Northeast 446 513 31,000  Level Chicago Center
05:39PM 40.0239 -89.4425 45° Northeast 453 521 31,000  Level Chicago Center
05:40PM 40.1122 -89.3281 45° Northeast 451 519 31,000  Level Chicago Center
05:41PM 40.2003 -89.2131 45° Northeast 451 519 31,000  Level Chicago Center
05:42PM 40.2889 -89.0983 45° Northeast 450 518 31,000  Level Chicago Center
05:43PM 40.3781 -88.9825 45° Northeast 452 520 31,000  Level Chicago Center
05:44PM 40.4672 -88.8661 45° Northeast 452 520 31,000  Level Chicago Center
05:45PM 40.5678 -88.7333 45° Northeast 451 519 31,000  Level Chicago Center
05:46PM 40.6564 -88.6172 45° Northeast 451 519 31,000  Level Chicago Center
05:47PM 40.7456 -88.5006 45° Northeast 453 521 31,000  Level Chicago Center
05:48PM 40.8517 -88.3592 45° Northeast 453 521 31,000  Level Chicago Center
05:49PM 40.9392 -88.2417 45° Northeast 454 522 31,000  Level Chicago Center
05:51PM 41.0281 -88.1231 45° Northeast 456 525 31,000  Level Chicago Center
05:52PM 41.1161 -88.0044 45° Northeast 457 526 31,000  Level Chicago Center
05:53PM 41.2211 -87.8636 45° Northeast 456 525 31,000  Level Chicago Center
05:54PM 41.3075 -87.7442 46° Northeast 457 526 31,000  Level Chicago Center
05:55PM 41.3958 -87.6242 46° Northeast 461 531 31,000 -180 Level Chicago Center
05:56PM 41.4844 -87.5050 45° Northeast 460 529 30,700 -600 Descending Chicago Center
05:57PM 41.5728 -87.3831 46° Northeast 460 529 29,800 -1,020 Descending Chicago Center
05:58PM 41.6806 -87.2356 46° Northeast 467 537 28,700 -960 Descending Chicago Center
05:59PM 41.7742 -87.1203 43° Northeast 462 532 27,800 -900 Descending Chicago Center
06:00PM 41.8792 -87.0178 36° Northeast 467 537 26,900 -960 Descending Chicago Center
06:01PM 41.9725 -86.9003 43° Northeast 465 535 25,900 -960 Descending Chicago Center
06:02PM 42.0589 -86.7717 48° Northeast 465 535 25,000 -1,620 Descending Chicago Center
06:03PM 42.1144 -86.6047 66° East 441 507 22,600 -2,160 Descending Chicago Center
06:04PM 42.1611 -86.4567 67° East 430 495 20,600 -1,500 Descending Chicago Center
06:05PM 42.2058 -86.3139 67° East 416 479 19,600 -1,440 Descending Chicago Center
06:06PM 42.2750 -86.1933 52° Northeast 415 478 17,700 -2,520 Descending Chicago Center
06:07PM 42.3761 -86.0867 38° Northeast 411 473 14,400 -3,000 Descending Chicago Center
06:08PM 42.4597 -85.9967 38° Northeast 392 451 11,500 -1,740 Descending Chicago Center
06:09PM 42.5431 -85.9292 31° Northeast 357 411 10,900 -1,140 Descending Chicago Center
06:10PM 42.6264 -85.8581 32° Northeast 306 352 9,200 -1,980 Descending Chicago Center
06:11PM 42.6908 -85.8019 33° Northeast 282 325 6,900 -2,280 Descending Chicago Center